createdAt,value
2022-11-15T00:00:13.323Z,99611.91
2022-11-15T00:03:23.215Z,99604.84
2022-11-15T00:06:30.244Z,99609.00
2022-11-15T00:09:39.916Z,99605.59
2022-11-15T00:12:49.441Z,99601.78
2022-11-15T00:15:59.235Z,99596.38
2022-11-15T00:19:07.601Z,99599.63
2022-11-15T00:22:14.773Z,99587.47
2022-11-15T00:25:21.870Z,99583.09
2022-11-15T00:28:29.174Z,99591.28
2022-11-15T00:31:36.407Z,99593.44
2022-11-15T00:34:44.884Z,99585.88
2022-11-15T00:37:51.862Z,99587.63
2022-11-15T00:40:59.127Z,99582.16
2022-11-15T00:44:06.391Z,99587.69
2022-11-15T00:47:13.559Z,99580.22
2022-11-15T00:50:22.086Z,99571.50
2022-11-15T00:53:29.734Z,99568.69
2022-11-15T00:56:37.297Z,99572.66
2022-11-15T00:59:44.299Z,99573.69
2022-11-15T01:02:51.607Z,99574.41
2022-11-15T01:06:02.603Z,99577.13
2022-11-15T01:09:09.673Z,99563.91
2022-11-15T01:12:16.965Z,99560.84
2022-11-15T01:15:24.243Z,99559.09
2022-11-15T01:18:31.332Z,99556.94
2022-11-15T01:21:39.819Z,99555.72
2022-11-15T01:24:46.953Z,99562.84
2022-11-15T01:27:54.080Z,99562.00
2022-11-15T01:31:01.572Z,99561.28
2022-11-15T01:34:08.601Z,99562.00
2022-11-15T01:37:16.988Z,99552.38
2022-11-15T01:40:24.220Z,99547.06
2022-11-15T01:43:33.246Z,99538.38
2022-11-15T01:46:40.541Z,99546.06
2022-11-15T01:49:54.175Z,99552.91
2022-11-15T01:53:02.511Z,99558.09
2022-11-15T01:56:12.889Z,99551.34
2022-11-15T01:59:19.797Z,99547.06
2022-11-15T02:02:27.159Z,99550.81
2022-11-15T02:05:34.301Z,99543.13
2022-11-15T02:08:42.603Z,99540.59
2022-11-15T02:11:49.913Z,99533.88
2022-11-15T02:14:57.076Z,99523.78
2022-11-15T02:18:13.776Z,99524.34
2022-11-15T02:21:25.065Z,99517.16
2022-11-15T02:24:58.166Z,99515.50
2022-11-15T02:28:24.421Z,99513.91
2022-11-15T02:31:35.438Z,99514.75
2022-11-15T02:34:48.227Z,99507.75
2022-11-15T02:37:58.403Z,99492.38
2022-11-15T02:41:07.110Z,99502.75
2022-11-15T02:44:16.314Z,99495.22
2022-11-15T02:47:24.634Z,99495.28
2022-11-15T02:50:32.076Z,99489.88
2022-11-15T02:53:39.189Z,99490.34
2022-11-15T02:56:46.391Z,99483.81
2022-11-15T03:00:07.201Z,99468.19
2022-11-15T03:03:43.783Z,99481.84
2022-11-15T03:06:54.684Z,99477.94
2022-11-15T03:10:07.318Z,99477.38
2022-11-15T03:13:24.128Z,99474.03
2022-11-15T03:16:34.007Z,99475.78
2022-11-15T03:19:46.177Z,99472.53
2022-11-15T03:22:53.066Z,99479.38
2022-11-15T03:26:00.706Z,99482.88
2022-11-15T03:29:11.306Z,99480.22
2022-11-15T03:32:20.457Z,99477.44
2022-11-15T03:35:30.170Z,99478.94
2022-11-15T03:38:37.285Z,99469.44
2022-11-15T03:41:49.698Z,99463.19
2022-11-15T03:45:00.493Z,99474.09
2022-11-15T03:48:11.258Z,99469.84
2022-11-15T03:51:19.529Z,99476.34
2022-11-15T03:54:26.676Z,99472.34
2022-11-15T03:57:33.911Z,99466.66
2022-11-15T04:00:40.993Z,99461.28
2022-11-15T04:03:48.037Z,99451.88
2022-11-15T04:06:56.549Z,99463.81
2022-11-15T04:10:07.188Z,99464.63
2022-11-15T04:13:13.967Z,99469.47
2022-11-15T04:16:21.095Z,99464.28
2022-11-15T04:20:00.558Z,99460.75
2022-11-15T04:23:29.969Z,99471.84
2022-11-15T04:26:37.207Z,99467.09
2022-11-15T04:29:43.945Z,99467.38
2022-11-15T04:32:50.989Z,99454.16
2022-11-15T04:36:15.287Z,99461.66
2022-11-15T04:39:23.742Z,99454.56
2022-11-15T04:42:30.867Z,99453.63
2022-11-15T04:45:37.830Z,99451.16
2022-11-15T04:48:44.954Z,99451.91
2022-11-15T04:51:52.106Z,99449.19
2022-11-15T04:55:05.142Z,99448.44
2022-11-15T04:58:14.624Z,99444.03
2022-11-15T05:01:21.845Z,99438.84
2022-11-15T05:04:28.161Z,99433.59
2022-11-15T05:07:35.231Z,99434.34
2022-11-15T05:10:43.706Z,99424.94
2022-11-15T05:13:50.782Z,99417.25
2022-11-15T05:16:57.936Z,99418.88
2022-11-15T05:20:06.193Z,99413.91
2022-11-15T05:23:13.319Z,99415.75
2022-11-15T05:26:21.662Z,99407.25
2022-11-15T05:29:28.487Z,99404.75
2022-11-15T05:32:35.532Z,99417.78
2022-11-15T05:35:44.833Z,99404.09
2022-11-15T05:38:52.036Z,99407.72
2022-11-15T05:42:03.563Z,99411.31
2022-11-15T05:45:10.690Z,99415.81
2022-11-15T05:48:17.452Z,99408.41
2022-11-15T05:51:24.718Z,99405.75
2022-11-15T05:54:31.506Z,99408.50
2022-11-15T05:57:39.807Z,99411.09
2022-11-15T06:00:46.709Z,99414.53
2022-11-15T06:03:53.779Z,99415.16
2022-11-15T06:07:00.974Z,99408.16
2022-11-15T06:10:10.158Z,99408.16
2022-11-15T06:13:18.592Z,99409.16
2022-11-15T06:16:25.700Z,99418.69
2022-11-15T06:19:33.934Z,99415.34
2022-11-15T06:22:40.785Z,99419.69
2022-11-15T06:25:47.770Z,99417.75
2022-11-15T06:28:56.030Z,99411.47
2022-11-15T06:32:02.813Z,99408.91
2022-11-15T06:35:09.903Z,99418.97
2022-11-15T06:38:16.789Z,99417.22
2022-11-15T06:41:23.577Z,99412.97
2022-11-15T06:44:32.035Z,99424.25
2022-11-15T06:47:45.840Z,99428.50
2022-11-15T06:50:53.706Z,99427.41
2022-11-15T06:54:01.114Z,99423.59
2022-11-15T06:57:08.553Z,99421.88
2022-11-15T07:00:18.689Z,99421.75
2022-11-15T07:03:25.733Z,99414.09
2022-11-15T07:06:12.671Z,99418.34
2022-11-15T07:08:59.168Z,99417.50
2022-11-15T07:11:45.865Z,99419.28
2022-11-15T07:14:32.670Z,99413.91
2022-11-15T07:17:20.586Z,99417.88
2022-11-15T07:20:08.579Z,99422.88
2022-11-15T07:23:01.884Z,99419.19
2022-11-15T07:25:48.461Z,99413.75
2022-11-15T07:28:35.803Z,99412.91
2022-11-15T07:31:23.480Z,99420.56
2022-11-15T07:34:11.589Z,99419.53
2022-11-15T07:36:58.523Z,99427.78
2022-11-15T07:39:45.006Z,99414.06
2022-11-15T07:42:51.103Z,99412.56
2022-11-15T07:45:43.356Z,99417.28
2022-11-15T07:48:42.947Z,99414.13
2022-11-15T07:51:32.175Z,99432.59
2022-11-15T07:54:18.586Z,99428.88
2022-11-15T07:57:07.439Z,99429.34
2022-11-15T07:59:55.098Z,99428.47
2022-11-15T08:02:42.410Z,99420.84
2022-11-15T08:05:29.212Z,99413.19
2022-11-15T08:08:17.595Z,99417.63
2022-11-15T08:11:04.265Z,99421.13
2022-11-15T08:13:50.797Z,99422.88
2022-11-15T08:16:37.518Z,99411.81
2022-11-15T08:19:24.000Z,99406.56
2022-11-15T08:22:10.509Z,99416.66
2022-11-15T08:24:58.250Z,99411.66
2022-11-15T08:27:44.855Z,99397.41
2022-11-15T08:30:31.979Z,99405.63
2022-11-15T08:33:18.635Z,99403.44
2022-11-15T08:36:06.199Z,99395.72
2022-11-15T08:38:53.080Z,99388.25
2022-11-15T08:41:40.862Z,99394.59
2022-11-15T08:44:27.537Z,99383.56
2022-11-15T08:47:14.622Z,99393.88
2022-11-15T08:50:01.273Z,99389.50
2022-11-15T08:52:49.086Z,99384.91
2022-11-15T08:55:38.524Z,99381.47
2022-11-15T08:58:26.496Z,99389.16
2022-11-15T09:01:18.924Z,99390.72
2022-11-15T09:04:05.954Z,99392.16
2022-11-15T09:06:52.740Z,99391.94
2022-11-15T09:09:39.640Z,99393.63
2022-11-15T09:12:26.642Z,99390.78
2022-11-15T09:15:14.693Z,99375.09
2022-11-15T09:18:01.261Z,99384.44
2022-11-15T09:20:47.966Z,99373.13
2022-11-15T09:23:34.424Z,99379.03
2022-11-15T09:26:21.117Z,99378.09
2022-11-15T09:29:07.989Z,99378.81
2022-11-15T09:31:55.752Z,99371.72
2022-11-15T09:34:42.413Z,99377.41
2022-11-15T09:37:29.169Z,99390.19
2022-11-15T09:40:17.816Z,99382.69
2022-11-15T09:43:26.102Z,99392.75
2022-11-15T09:46:18.266Z,99388.13
2022-11-15T09:49:06.576Z,99379.00
2022-11-15T09:51:54.898Z,99372.03
2022-11-15T09:57:19.714Z,99373.81
2022-11-15T10:00:23.919Z,99361.44
2022-11-15T10:03:12.224Z,99363.97
2022-11-15T10:05:44.852Z,99363.25
2022-11-15T10:08:26.001Z,99364.03
2022-11-15T10:13:51.095Z,99365.63
2022-11-15T10:16:43.265Z,99361.47
2022-11-15T10:19:18.212Z,99361.03
2022-11-15T10:21:56.988Z,99361.97
2022-11-15T10:24:29.025Z,99355.13
2022-11-15T10:26:57.477Z,99343.28
2022-11-15T10:29:27.447Z,99349.63
2022-11-15T10:31:55.697Z,99353.78
2022-11-15T10:34:25.837Z,99344.44
2022-11-15T10:36:58.708Z,99341.94
2022-11-15T10:39:28.096Z,99339.69
2022-11-15T10:41:56.388Z,99338.97
2022-11-15T10:44:28.916Z,99331.03
2022-11-15T10:47:26.588Z,99331.84
2022-11-15T10:50:04.026Z,99322.88
2022-11-15T10:52:35.452Z,99321.09
2022-11-15T10:55:14.779Z,99322.06
2022-11-15T10:57:50.481Z,99318.84
2022-11-15T11:00:34.277Z,99311.28
2022-11-15T11:03:04.056Z,99313.19
2022-11-15T11:05:39.643Z,99301.94
2022-11-15T11:08:23.950Z,99294.22
2022-11-15T11:11:00.041Z,99291.56
2022-11-15T11:13:29.797Z,99290.47
2022-11-15T11:16:04.382Z,99283.94
2022-11-15T11:18:35.684Z,99274.59
2022-11-15T11:21:07.877Z,99280.88
2022-11-15T11:23:50.259Z,99267.13
2022-11-15T11:26:33.758Z,99284.91
2022-11-15T11:29:07.620Z,99274.47
2022-11-15T11:31:45.382Z,99263.56
2022-11-15T11:34:18.578Z,99260.47
2022-11-15T11:36:51.497Z,99251.44
2022-11-15T11:39:27.321Z,99248.09
2022-11-15T11:42:03.798Z,99245.44
2022-11-15T11:44:40.552Z,99242.16
2022-11-15T11:47:11.616Z,99241.84
2022-11-15T11:49:45.711Z,99242.69
2022-11-15T11:52:17.167Z,99231.72
2022-11-15T11:54:52.165Z,99218.25
2022-11-15T11:57:34.894Z,99213.75
2022-11-15T12:00:07.519Z,99212.66
2022-11-15T12:02:43.149Z,99208.00
2022-11-15T12:05:15.358Z,99201.34
2022-11-15T12:07:43.390Z,99202.59
2022-11-15T12:10:22.049Z,99195.03
2022-11-15T12:12:57.024Z,99193.13
2022-11-15T12:15:28.066Z,99190.56
2022-11-15T12:17:57.851Z,99185.78
2022-11-15T12:20:27.573Z,99179.50
2022-11-15T12:22:58.958Z,99176.31
2022-11-15T12:25:32.068Z,99177.41
2022-11-15T12:28:03.953Z,99168.75
2022-11-15T12:30:49.011Z,99164.59
2022-11-15T12:33:36.066Z,99160.75
2022-11-15T12:36:05.743Z,99160.28
2022-11-15T12:38:57.851Z,99155.50
2022-11-15T12:41:28.181Z,99154.75
2022-11-15T12:43:56.664Z,99157.75
2022-11-15T12:46:59.612Z,99151.94
2022-11-15T12:49:49.507Z,99151.28
2022-11-15T12:52:18.169Z,99129.84
2022-11-15T12:54:58.523Z,99141.53
2022-11-15T12:57:42.397Z,99136.69
2022-11-15T13:00:39.966Z,99133.06
2022-11-15T13:03:36.163Z,99123.84
2022-11-15T13:06:10.843Z,99124.69
2022-11-15T13:08:57.332Z,99124.09
2022-11-15T13:11:49.389Z,99119.38
2022-11-15T13:14:48.786Z,99127.00
2022-11-15T13:17:34.516Z,99118.00
2022-11-15T13:20:25.935Z,99115.44
2022-11-15T13:23:03.219Z,99113.78
2022-11-15T13:26:14.499Z,99116.75
2022-11-15T13:28:46.657Z,99109.56
2022-11-15T13:31:38.080Z,99105.34
2022-11-15T13:34:50.618Z,99106.53
2022-11-15T13:37:31.846Z,99107.47
2022-11-15T13:40:19.650Z,99091.03
2022-11-15T13:42:47.797Z,99083.91
2022-11-15T13:45:17.840Z,99076.94
2022-11-15T13:47:49.925Z,99084.75
2022-11-15T13:50:18.345Z,99081.19
2022-11-15T13:52:46.793Z,99068.28
2022-11-15T13:55:16.769Z,99064.63
2022-11-15T13:57:46.405Z,99064.25
2022-11-15T14:00:37.294Z,99058.19
2022-11-15T14:03:18.147Z,99047.13
2022-11-15T14:05:47.192Z,99044.50
2022-11-15T14:08:25.034Z,99037.63
2022-11-15T14:11:09.552Z,99036.81
2022-11-15T14:13:37.728Z,99041.31
2022-11-15T14:16:16.994Z,99034.31
2022-11-15T14:18:49.309Z,99029.81
2022-11-15T14:21:17.542Z,99029.72
2022-11-15T14:23:45.759Z,99019.53
2022-11-15T14:26:29.712Z,99018.47
2022-11-15T14:28:57.770Z,99018.69
2022-11-15T14:31:25.846Z,98994.94
2022-11-15T14:33:55.625Z,99000.91
2022-11-15T14:36:23.877Z,98992.06
2022-11-15T14:38:52.017Z,98990.91
2022-11-15T14:41:22.170Z,98992.34
2022-11-15T14:43:50.482Z,98980.53
2022-11-15T14:46:18.613Z,98984.22
2022-11-15T14:48:46.890Z,98984.31
2022-11-15T14:51:18.643Z,98968.13
2022-11-15T14:53:47.592Z,98969.16
2022-11-15T14:56:15.781Z,98965.16
2022-11-15T14:58:43.930Z,98964.69
2022-11-15T15:01:15.810Z,98952.88
2022-11-15T15:03:45.024Z,98950.66
2022-11-15T15:06:17.848Z,98956.91
2022-11-15T15:08:49.394Z,98950.31
2022-11-15T15:11:22.908Z,98945.25
2022-11-15T15:13:51.059Z,98938.50
2022-11-15T15:16:19.187Z,98940.41
2022-11-15T15:18:47.340Z,98924.31
2022-11-15T15:21:22.206Z,98918.41
2022-11-15T15:23:51.769Z,98918.66
2022-11-15T15:26:28.092Z,98914.66
2022-11-15T15:28:56.274Z,98896.72
2022-11-15T15:31:24.447Z,98894.47
2022-11-15T15:33:52.622Z,98885.38
2022-11-15T15:36:21.028Z,98891.53
2022-11-15T15:38:49.142Z,98893.53
2022-11-15T15:41:17.993Z,98888.59
2022-11-15T15:43:48.372Z,98894.97
2022-11-15T15:46:18.654Z,98894.28
2022-11-15T15:48:46.832Z,98896.06
2022-11-15T15:51:20.187Z,98893.44
2022-11-15T15:53:48.934Z,98893.44
2022-11-15T15:56:17.101Z,98892.47
2022-11-15T15:58:45.297Z,98896.16
2022-11-15T16:01:14.827Z,98891.66
2022-11-15T16:03:43.184Z,98888.25
2022-11-15T16:06:40.081Z,98883.97
2022-11-15T16:09:15.388Z,98881.38
2022-11-15T16:11:45.433Z,98873.59
2022-11-15T16:14:13.780Z,98869.09
2022-11-15T16:16:43.314Z,98872.66
2022-11-15T16:19:11.704Z,98869.09
2022-11-15T16:21:40.197Z,98864.88
2022-11-15T16:24:08.330Z,98867.47
2022-11-15T16:26:36.527Z,98861.56
2022-11-15T16:29:04.724Z,98865.22
2022-11-15T16:31:32.875Z,98859.31
2022-11-15T16:34:02.673Z,98854.25
2022-11-15T16:36:34.366Z,98847.50
2022-11-15T16:39:04.861Z,98852.59
2022-11-15T16:41:33.188Z,98846.56
2022-11-15T16:44:01.662Z,98844.09
2022-11-15T16:46:30.150Z,98838.19
2022-11-15T16:48:58.483Z,98829.44
2022-11-15T16:51:28.011Z,98825.44
2022-11-15T16:53:56.197Z,98824.38
2022-11-15T16:56:26.526Z,98823.31
2022-11-15T16:58:55.596Z,98819.75
2022-11-15T17:01:25.494Z,98816.22
2022-11-15T17:03:53.902Z,98811.84
2022-11-15T17:06:22.549Z,98805.84
2022-11-15T17:08:52.040Z,98797.19
2022-11-15T17:11:21.740Z,98797.91
2022-11-15T17:13:49.955Z,98803.91
2022-11-15T17:16:18.979Z,98801.09
2022-11-15T17:18:50.730Z,98788.66
2022-11-15T17:21:20.838Z,98787.47
2022-11-15T17:23:49.193Z,98790.41
2022-11-15T17:26:29.405Z,98791.59
2022-11-15T17:28:59.332Z,98788.84
2022-11-15T17:31:27.707Z,98795.56
2022-11-15T17:33:56.015Z,98784.25
2022-11-15T17:36:24.163Z,98781.38
2022-11-15T17:38:58.015Z,98776.88
2022-11-15T17:41:29.246Z,98777.00
2022-11-15T17:43:58.907Z,98781.81
2022-11-15T17:46:27.703Z,98777.31
2022-11-15T17:48:56.332Z,98782.53
2022-11-15T17:51:24.600Z,98779.69
2022-11-15T17:53:53.305Z,98775.19
2022-11-15T17:56:22.409Z,98776.84
2022-11-15T17:58:53.113Z,98775.19
2022-11-15T18:01:23.277Z,98773.31
2022-11-15T18:03:51.617Z,98763.84
2022-11-15T18:06:20.494Z,98760.41
2022-11-15T18:08:51.010Z,98769.28
2022-11-15T18:11:21.631Z,98771.91
2022-11-15T18:13:52.935Z,98743.41
2022-11-15T18:16:24.777Z,98761.72
2022-11-15T18:18:53.027Z,98751.34
2022-11-15T18:21:23.196Z,98749.81
2022-11-15T18:23:55.518Z,98757.59
2022-11-15T18:26:27.134Z,98758.44
2022-11-15T18:28:57.993Z,98739.78
2022-11-15T18:31:27.488Z,98750.63
2022-11-15T18:33:55.893Z,98748.88
2022-11-15T18:36:25.600Z,98740.22
2022-11-15T18:38:55.535Z,98737.63
2022-11-15T18:41:25.318Z,98740.94
2022-11-15T18:43:53.706Z,98741.63
2022-11-15T18:46:24.692Z,98734.53
2022-11-15T18:48:53.564Z,98733.72
2022-11-15T18:51:23.329Z,98732.91
2022-11-15T18:53:53.908Z,98724.13
2022-11-15T18:56:23.341Z,98730.16
2022-11-15T18:58:53.315Z,98728.41
2022-11-15T19:01:26.252Z,98724.13
2022-11-15T19:04:08.844Z,98717.81
2022-11-15T19:06:42.361Z,98720.59
2022-11-15T19:09:15.483Z,98716.00
2022-11-15T19:11:51.973Z,98710.44
2022-11-15T19:14:24.505Z,98720.84
2022-11-15T19:16:58.150Z,98712.47
2022-11-15T19:19:30.126Z,98717.53
2022-11-15T19:21:59.636Z,98718.63
2022-11-15T19:24:37.296Z,98713.78
2022-11-15T19:27:09.698Z,98714.63
2022-11-15T19:29:42.113Z,98710.25
2022-11-15T19:32:13.429Z,98709.56
2022-11-15T19:34:45.570Z,98702.69
2022-11-15T19:37:15.855Z,98707.66
2022-11-15T19:39:51.093Z,98706.97
2022-11-15T19:42:26.633Z,98698.97
2022-11-15T19:44:55.814Z,98705.94
2022-11-15T19:47:29.477Z,98715.25
2022-11-15T19:49:59.449Z,98703.91
2022-11-15T19:52:29.163Z,98704.03
2022-11-15T19:55:00.677Z,98704.16
2022-11-15T19:57:29.574Z,98700.63
2022-11-15T20:00:01.917Z,98683.16
2022-11-15T20:02:37.150Z,98689.53
2022-11-15T20:05:07.032Z,98688.56
2022-11-15T20:07:36.750Z,98676.06
2022-11-15T20:10:07.684Z,98679.13
2022-11-15T20:12:37.386Z,98688.44
2022-11-15T20:15:07.877Z,98689.53
2022-11-15T20:17:44.290Z,98693.75
2022-11-15T20:20:15.310Z,98686.94
2022-11-15T20:22:44.407Z,98685.16
2022-11-15T20:25:19.319Z,98675.13
2022-11-15T20:28:02.256Z,98668.53
2022-11-15T20:30:37.180Z,98672.53
2022-11-15T20:33:14.522Z,98669.78
2022-11-15T20:35:47.480Z,98647.53
2022-11-15T20:38:25.480Z,98669.94
2022-11-15T20:41:00.667Z,98657.66
2022-11-15T20:43:33.876Z,98668.75
2022-11-15T20:46:11.785Z,98652.63
2022-11-15T20:48:43.970Z,98651.97
2022-11-15T20:51:14.296Z,98641.16
2022-11-15T20:53:43.108Z,98642.13
2022-11-15T20:56:13.003Z,98632.22
2022-11-15T20:58:41.191Z,98623.28
2022-11-15T21:01:11.331Z,98621.75
2022-11-15T21:03:59.352Z,98629.09
2022-11-15T21:06:49.033Z,98632.88
2022-11-15T21:09:55.386Z,98621.09
2022-11-15T21:12:43.893Z,98622.13
2022-11-15T21:15:34.231Z,98619.69
2022-11-15T21:18:22.626Z,98618.72
2022-11-15T21:21:13.431Z,98618.00
2022-11-15T21:24:03.811Z,98603.25
2022-11-15T21:26:52.265Z,98609.28
2022-11-15T21:29:40.655Z,98610.38
2022-11-15T21:32:29.915Z,98615.56
2022-11-15T21:35:18.476Z,98616.38
2022-11-15T21:38:08.217Z,98615.56
2022-11-15T21:40:56.603Z,98612.97
2022-11-15T21:43:45.057Z,98610.38
2022-11-15T21:46:33.679Z,98610.38
2022-11-15T21:49:24.681Z,98609.53
2022-11-15T21:52:13.032Z,98609.41
2022-11-15T21:55:02.768Z,98603.94
2022-11-15T21:57:51.193Z,98604.66
2022-11-15T22:00:57.433Z,98595.13
2022-11-15T22:03:45.918Z,98603.59
2022-11-15T22:06:34.425Z,98600.91
2022-11-15T22:09:22.850Z,98592.16
2022-11-15T22:12:12.575Z,98592.16
2022-11-15T22:15:00.986Z,98588.16
2022-11-15T22:17:58.805Z,98593.72
2022-11-15T22:20:55.019Z,98599.03
2022-11-15T22:23:43.972Z,98601.03
2022-11-15T22:26:32.563Z,98595.78
2022-11-15T22:29:22.509Z,98601.44
2022-11-15T22:32:11.068Z,98593.47
2022-11-15T22:34:59.636Z,98609.75
2022-11-15T22:37:48.184Z,98589.66
2022-11-15T22:40:37.026Z,98599.69
2022-11-15T22:43:26.459Z,98597.25
2022-11-15T22:46:16.432Z,98595.03
2022-11-15T22:49:06.632Z,98597.63
2022-11-15T22:51:55.293Z,98584.03
2022-11-15T22:54:43.845Z,98576.06
2022-11-15T22:57:32.492Z,98569.81
2022-11-15T23:00:21.332Z,98566.88
2022-11-15T23:03:11.312Z,98568.84
2022-11-15T23:06:03.661Z,98564.84
2022-11-15T23:08:52.297Z,98568.63
2022-11-15T23:11:58.545Z,98562.59
2022-11-15T23:14:47.131Z,98568.97
2022-11-15T23:17:35.702Z,98567.41
2022-11-15T23:20:42.468Z,98563.91
2022-11-15T23:23:30.788Z,98560.38
2022-11-15T23:26:19.335Z,98557.56
2022-11-15T23:29:09.511Z,98560.00
2022-11-15T23:32:15.419Z,98565.09
2022-11-15T23:35:04.071Z,98570.28
2022-11-15T23:37:54.012Z,98576.16
2022-11-15T23:40:42.666Z,98571.94
2022-11-15T23:43:31.337Z,98575.69
2022-11-15T23:46:19.924Z,98574.38
2022-11-15T23:49:08.698Z,98571.44
2022-11-15T23:51:57.330Z,98565.78
2022-11-15T23:54:47.263Z,98564.69
2022-11-15T23:57:35.862Z,98564.34
